sensor_id;sensor_type;location;lat;lon;timestamp;P1;durP1;ratioP1;P2;durP2;ratioP2
78122;SDS011;67376;44.802;10.332;2023-05-07T00:01:31;3.88;;;3.20;;
78122;SDS011;67376;44.802;10.332;2023-05-07T00:03:56;3.92;;;3.30;;
78122;SDS011;67376;44.802;10.332;2023-05-07T00:06:22;5.45;;;3.55;;
78122;SDS011;67376;44.802;10.332;2023-05-07T00:08:47;3.47;;;2.90;;
78122;SDS011;67376;44.802;10.332;2023-05-07T00:11:13;4.22;;;3.10;;
78122;SDS011;67376;44.802;10.332;2023-05-07T00:13:38;4.25;;;3.25;;
78122;SDS011;67376;44.802;10.332;2023-05-07T00:16:04;5.63;;;3.60;;
78122;SDS011;67376;44.802;10.332;2023-05-07T00:18:30;4.13;;;3.38;;
78122;SDS011;67376;44.802;10.332;2023-05-07T00:20:55;4.15;;;3.30;;
78122;SDS011;67376;44.802;10.332;2023-05-07T00:23:21;4.07;;;3.13;;
78122;SDS011;67376;44.802;10.332;2023-05-07T00:25:47;4.10;;;3.15;;
78122;SDS011;67376;44.802;10.332;2023-05-07T00:28:13;3.60;;;2.83;;
78122;SDS011;67376;44.802;10.332;2023-05-07T00:30:38;3.75;;;3.13;;
78122;SDS011;67376;44.802;10.332;2023-05-07T00:33:03;3.65;;;3.10;;
78122;SDS011;67376;44.802;10.332;2023-05-07T00:35:29;5.45;;;3.70;;
78122;SDS011;67376;44.802;10.332;2023-05-07T00:37:55;3.95;;;2.92;;
78122;SDS011;67376;44.802;10.332;2023-05-07T00:40:20;4.13;;;3.17;;
78122;SDS011;67376;44.802;10.332;2023-05-07T00:42:46;4.72;;;3.38;;
78122;SDS011;67376;44.802;10.332;2023-05-07T00:45:12;3.78;;;3.20;;
78122;SDS011;67376;44.802;10.332;2023-05-07T00:47:38;4.18;;;3.60;;
78122;SDS011;67376;44.802;10.332;2023-05-07T00:50:05;4.38;;;3.40;;
78122;SDS011;67376;44.802;10.332;2023-05-07T00:52:31;4.13;;;3.40;;
78122;SDS011;67376;44.802;10.332;2023-05-07T00:54:56;4.47;;;3.65;;
78122;SDS011;67376;44.802;10.332;2023-05-07T00:57:22;6.25;;;3.55;;
78122;SDS011;67376;44.802;10.332;2023-05-07T00:59:49;5.93;;;3.50;;
78122;SDS011;67376;44.802;10.332;2023-05-07T01:02:16;4.00;;;3.47;;
78122;SDS011;67376;44.802;10.332;2023-05-07T01:04:42;4.60;;;3.50;;
78122;SDS011;67376;44.802;10.332;2023-05-07T01:07:07;4.95;;;3.60;;
78122;SDS011;67376;44.802;10.332;2023-05-07T01:09:33;4.57;;;3.80;;
78122;SDS011;67376;44.802;10.332;2023-05-07T01:12:00;4.78;;;4.03;;
78122;SDS011;67376;44.802;10.332;2023-05-07T01:14:26;5.55;;;4.22;;
78122;SDS011;67376;44.802;10.332;2023-05-07T01:16:52;4.68;;;3.70;;
78122;SDS011;67376;44.802;10.332;2023-05-07T01:19:18;4.93;;;4.10;;
78122;SDS011;67376;44.802;10.332;2023-05-07T01:21:47;5.57;;;4.13;;
78122;SDS011;67376;44.802;10.332;2023-05-07T01:24:14;4.50;;;3.78;;
78122;SDS011;67376;44.802;10.332;2023-05-07T01:26:41;5.90;;;3.88;;
78122;SDS011;67376;44.802;10.332;2023-05-07T01:29:07;5.78;;;4.07;;
78122;SDS011;67376;44.802;10.332;2023-05-07T01:31:33;5.00;;;4.00;;
78122;SDS011;67376;44.802;10.332;2023-05-07T01:34:00;5.90;;;4.60;;
78122;SDS011;67376;44.802;10.332;2023-05-07T01:36:26;6.40;;;3.88;;
78122;SDS011;67376;44.802;10.332;2023-05-07T01:38:55;4.72;;;4.10;;
78122;SDS011;67376;44.802;10.332;2023-05-07T01:41:22;4.90;;;3.80;;
78122;SDS011;67376;44.802;10.332;2023-05-07T01:43:48;5.63;;;4.07;;
78122;SDS011;67376;44.802;10.332;2023-05-07T01:46:15;5.97;;;4.88;;
78122;SDS011;67376;44.802;10.332;2023-05-07T01:48:42;5.15;;;4.13;;
78122;SDS011;67376;44.802;10.332;2023-05-07T01:51:10;7.50;;;4.38;;
78122;SDS011;67376;44.802;10.332;2023-05-07T01:53:37;6.65;;;4.18;;
78122;SDS011;67376;44.802;10.332;2023-05-07T01:56:02;6.47;;;4.38;;
78122;SDS011;67376;44.802;10.332;2023-05-07T01:58:28;5.28;;;4.30;;
78122;SDS011;67376;44.802;10.332;2023-05-07T02:00:53;5.65;;;4.38;;
78122;SDS011;67376;44.802;10.332;2023-05-07T02:03:19;6.32;;;4.50;;
78122;SDS011;67376;44.802;10.332;2023-05-07T02:05:44;6.47;;;4.75;;
78122;SDS011;67376;44.802;10.332;2023-05-07T02:08:10;6.70;;;4.85;;
78122;SDS011;67376;44.802;10.332;2023-05-07T02:10:35;7.45;;;5.15;;
78122;SDS011;67376;44.802;10.332;2023-05-07T02:13:01;5.68;;;4.63;;
78122;SDS011;67376;44.802;10.332;2023-05-07T02:15:27;6.07;;;4.78;;
78122;SDS011;67376;44.802;10.332;2023-05-07T02:18:02;6.55;;;5.22;;
78122;SDS011;67376;44.802;10.332;2023-05-07T02:20:28;5.75;;;4.82;;
78122;SDS011;67376;44.802;10.332;2023-05-07T02:22:53;5.60;;;4.38;;
78122;SDS011;67376;44.802;10.332;2023-05-07T02:25:19;6.63;;;5.28;;
78122;SDS011;67376;44.802;10.332;2023-05-07T02:27:44;6.20;;;5.20;;
78122;SDS011;67376;44.802;10.332;2023-05-07T02:30:09;5.75;;;4.60;;
78122;SDS011;67376;44.802;10.332;2023-05-07T02:32:35;6.28;;;4.97;;
78122;SDS011;67376;44.802;10.332;2023-05-07T02:35:00;5.43;;;4.78;;
78122;SDS011;67376;44.802;10.332;2023-05-07T02:37:26;5.25;;;4.53;;
78122;SDS011;67376;44.802;10.332;2023-05-07T02:39:51;6.03;;;4.70;;
78122;SDS011;67376;44.802;10.332;2023-05-07T02:42:16;4.88;;;4.38;;
78122;SDS011;67376;44.802;10.332;2023-05-07T02:44:42;6.93;;;4.68;;
78122;SDS011;67376;44.802;10.332;2023-05-07T02:47:07;5.50;;;4.78;;
78122;SDS011;67376;44.802;10.332;2023-05-07T02:49:34;5.85;;;4.60;;
78122;SDS011;67376;44.802;10.332;2023-05-07T02:51:59;6.00;;;4.65;;
78122;SDS011;67376;44.802;10.332;2023-05-07T02:54:25;5.68;;;4.80;;
78122;SDS011;67376;44.802;10.332;2023-05-07T02:56:50;5.47;;;4.57;;
78122;SDS011;67376;44.802;10.332;2023-05-07T02:59:16;5.88;;;4.57;;
78122;SDS011;67376;44.802;10.332;2023-05-07T03:01:41;6.78;;;4.60;;
78122;SDS011;67376;44.802;10.332;2023-05-07T03:04:09;5.50;;;4.50;;
78122;SDS011;67376;44.802;10.332;2023-05-07T03:06:35;5.95;;;4.38;;
78122;SDS011;67376;44.802;10.332;2023-05-07T03:09:01;5.85;;;4.68;;
78122;SDS011;67376;44.802;10.332;2023-05-07T03:11:26;4.55;;;4.10;;
78122;SDS011;67376;44.802;10.332;2023-05-07T03:13:51;7.25;;;4.70;;
78122;SDS011;67376;44.802;10.332;2023-05-07T03:16:17;5.80;;;3.97;;
78122;SDS011;67376;44.802;10.332;2023-05-07T03:18:42;7.70;;;4.82;;
78122;SDS011;67376;44.802;10.332;2023-05-07T03:21:07;5.13;;;4.30;;
78122;SDS011;67376;44.802;10.332;2023-05-07T03:23:33;5.10;;;3.78;;
78122;SDS011;67376;44.802;10.332;2023-05-07T03:25:59;4.47;;;3.70;;
78122;SDS011;67376;44.802;10.332;2023-05-07T03:28:24;5.40;;;4.13;;
78122;SDS011;67376;44.802;10.332;2023-05-07T03:30:49;5.82;;;3.60;;
78122;SDS011;67376;44.802;10.332;2023-05-07T03:33:15;4.80;;;3.97;;
78122;SDS011;67376;44.802;10.332;2023-05-07T03:35:41;4.32;;;3.50;;
78122;SDS011;67376;44.802;10.332;2023-05-07T03:38:06;3.85;;;3.28;;
78122;SDS011;67376;44.802;10.332;2023-05-07T03:40:32;4.07;;;3.35;;
78122;SDS011;67376;44.802;10.332;2023-05-07T03:42:58;4.43;;;3.53;;
78122;SDS011;67376;44.802;10.332;2023-05-07T03:45:24;3.83;;;3.28;;
78122;SDS011;67376;44.802;10.332;2023-05-07T03:47:50;4.63;;;3.30;;
78122;SDS011;67376;44.802;10.332;2023-05-07T03:50:15;4.07;;;3.60;;
78122;SDS011;67376;44.802;10.332;2023-05-07T03:52:41;4.30;;;3.72;;
78122;SDS011;67376;44.802;10.332;2023-05-07T03:55:06;4.47;;;3.50;;
78122;SDS011;67376;44.802;10.332;2023-05-07T03:57:32;5.60;;;3.72;;
78122;SDS011;67376;44.802;10.332;2023-05-07T03:59:57;4.82;;;3.38;;
78122;SDS011;67376;44.802;10.332;2023-05-07T04:02:23;5.28;;;3.42;;
78122;SDS011;67376;44.802;10.332;2023-05-07T04:04:48;4.53;;;3.33;;
78122;SDS011;67376;44.802;10.332;2023-05-07T04:07:14;4.28;;;3.38;;
78122;SDS011;67376;44.802;10.332;2023-05-07T04:09:40;4.10;;;3.50;;
78122;SDS011;67376;44.802;10.332;2023-05-07T04:12:05;5.22;;;3.55;;
78122;SDS011;67376;44.802;10.332;2023-05-07T04:14:31;4.30;;;3.40;;
78122;SDS011;67376;44.802;10.332;2023-05-07T04:16:57;5.13;;;3.13;;
78122;SDS011;67376;44.802;10.332;2023-05-07T04:19:24;4.60;;;3.20;;
78122;SDS011;67376;44.802;10.332;2023-05-07T04:21:49;4.60;;;3.47;;
78122;SDS011;67376;44.802;10.332;2023-05-07T04:24:15;5.18;;;3.60;;
78122;SDS011;67376;44.802;10.332;2023-05-07T04:26:40;5.25;;;3.42;;
78122;SDS011;67376;44.802;10.332;2023-05-07T04:29:06;4.97;;;3.40;;
78122;SDS011;67376;44.802;10.332;2023-05-07T04:31:31;4.97;;;3.13;;
78122;SDS011;67376;44.802;10.332;2023-05-07T04:33:57;4.22;;;3.20;;
78122;SDS011;67376;44.802;10.332;2023-05-07T04:36:22;4.13;;;3.33;;
78122;SDS011;67376;44.802;10.332;2023-05-07T04:38:51;4.15;;;3.13;;
78122;SDS011;67376;44.802;10.332;2023-05-07T04:41:16;3.97;;;3.30;;
78122;SDS011;67376;44.802;10.332;2023-05-07T04:43:41;7.72;;;3.70;;
78122;SDS011;67376;44.802;10.332;2023-05-07T04:46:07;3.63;;;2.90;;
78122;SDS011;67376;44.802;10.332;2023-05-07T04:48:33;3.45;;;2.78;;
78122;SDS011;67376;44.802;10.332;2023-05-07T04:50:58;4.65;;;2.90;;
78122;SDS011;67376;44.802;10.332;2023-05-07T04:53:23;3.92;;;2.92;;
78122;SDS011;67376;44.802;10.332;2023-05-07T04:55:54;3.45;;;2.83;;
78122;SDS011;67376;44.802;10.332;2023-05-07T04:58:20;3.45;;;2.92;;
78122;SDS011;67376;44.802;10.332;2023-05-07T05:00:46;4.72;;;2.85;;
78122;SDS011;67376;44.802;10.332;2023-05-07T05:03:11;3.90;;;2.80;;
78122;SDS011;67376;44.802;10.332;2023-05-07T05:05:37;4.05;;;3.22;;
78122;SDS011;67376;44.802;10.332;2023-05-07T05:08:02;3.55;;;2.90;;
78122;SDS011;67376;44.802;10.332;2023-05-07T05:10:27;3.67;;;2.90;;
78122;SDS011;67376;44.802;10.332;2023-05-07T05:12:53;3.85;;;2.90;;
78122;SDS011;67376;44.802;10.332;2023-05-07T05:15:18;4.40;;;2.63;;
78122;SDS011;67376;44.802;10.332;2023-05-07T05:17:43;5.05;;;3.25;;
78122;SDS011;67376;44.802;10.332;2023-05-07T05:20:09;4.00;;;3.35;;
78122;SDS011;67376;44.802;10.332;2023-05-07T05:22:38;4.10;;;3.17;;
78122;SDS011;67376;44.802;10.332;2023-05-07T05:25:03;4.95;;;3.00;;
78122;SDS011;67376;44.802;10.332;2023-05-07T05:27:29;3.53;;;2.92;;
78122;SDS011;67376;44.802;10.332;2023-05-07T05:29:55;3.83;;;3.22;;
78122;SDS011;67376;44.802;10.332;2023-05-07T05:32:20;4.10;;;2.63;;
78122;SDS011;67376;44.802;10.332;2023-05-07T05:34:46;3.72;;;2.85;;
78122;SDS011;67376;44.802;10.332;2023-05-07T05:37:12;4.10;;;2.83;;
78122;SDS011;67376;44.802;10.332;2023-05-07T05:39:38;4.00;;;2.70;;
78122;SDS011;67376;44.802;10.332;2023-05-07T05:42:03;3.63;;;2.92;;
78122;SDS011;67376;44.802;10.332;2023-05-07T05:44:28;4.13;;;2.80;;
78122;SDS011;67376;44.802;10.332;2023-05-07T05:46:54;3.22;;;2.67;;
78122;SDS011;67376;44.802;10.332;2023-05-07T05:49:20;3.33;;;2.67;;
78122;SDS011;67376;44.802;10.332;2023-05-07T05:51:46;4.00;;;3.00;;
78122;SDS011;67376;44.802;10.332;2023-05-07T05:54:11;4.30;;;3.15;;
78122;SDS011;67376;44.802;10.332;2023-05-07T05:56:37;3.45;;;2.67;;
78122;SDS011;67376;44.802;10.332;2023-05-07T05:59:02;3.35;;;2.47;;
78122;SDS011;67376;44.802;10.332;2023-05-07T06:01:28;3.70;;;3.00;;
78122;SDS011;67376;44.802;10.332;2023-05-07T06:03:54;3.60;;;2.88;;
78122;SDS011;67376;44.802;10.332;2023-05-07T06:06:19;5.40;;;2.65;;
78122;SDS011;67376;44.802;10.332;2023-05-07T06:08:44;3.97;;;3.03;;
78122;SDS011;67376;44.802;10.332;2023-05-07T06:11:10;3.25;;;2.80;;
78122;SDS011;67376;44.802;10.332;2023-05-07T06:13:36;3.95;;;2.90;;
78122;SDS011;67376;44.802;10.332;2023-05-07T06:16:01;3.25;;;2.75;;
78122;SDS011;67376;44.802;10.332;2023-05-07T06:18:26;4.00;;;3.00;;
78122;SDS011;67376;44.802;10.332;2023-05-07T06:20:52;3.42;;;2.70;;
78122;SDS011;67376;44.802;10.332;2023-05-07T06:23:18;4.55;;;3.05;;
78122;SDS011;67376;44.802;10.332;2023-05-07T06:25:50;4.07;;;2.90;;
78122;SDS011;67376;44.802;10.332;2023-05-07T06:28:16;3.58;;;2.85;;
78122;SDS011;67376;44.802;10.332;2023-05-07T06:30:42;3.17;;;2.72;;
78122;SDS011;67376;44.802;10.332;2023-05-07T06:33:07;3.47;;;2.80;;
78122;SDS011;67376;44.802;10.332;2023-05-07T06:35:33;3.92;;;2.70;;
78122;SDS011;67376;44.802;10.332;2023-05-07T06:37:59;4.43;;;2.55;;
78122;SDS011;67376;44.802;10.332;2023-05-07T06:40:25;3.40;;;2.85;;
78122;SDS011;67376;44.802;10.332;2023-05-07T06:42:51;4.30;;;3.00;;
78122;SDS011;67376;44.802;10.332;2023-05-07T06:45:16;4.45;;;3.03;;
78122;SDS011;67376;44.802;10.332;2023-05-07T06:47:41;3.83;;;3.10;;
78122;SDS011;67376;44.802;10.332;2023-05-07T06:50:07;3.40;;;3.10;;
78122;SDS011;67376;44.802;10.332;2023-05-07T06:52:33;3.40;;;2.85;;
78122;SDS011;67376;44.802;10.332;2023-05-07T06:54:59;3.97;;;2.95;;
78122;SDS011;67376;44.802;10.332;2023-05-07T06:57:25;3.28;;;2.95;;
78122;SDS011;67376;44.802;10.332;2023-05-07T06:59:50;3.45;;;2.97;;
78122;SDS011;67376;44.802;10.332;2023-05-07T07:02:15;3.72;;;2.85;;
78122;SDS011;67376;44.802;10.332;2023-05-07T07:04:41;4.10;;;2.78;;
78122;SDS011;67376;44.802;10.332;2023-05-07T07:07:07;6.07;;;3.22;;
78122;SDS011;67376;44.802;10.332;2023-05-07T07:09:32;5.90;;;3.22;;
78122;SDS011;67376;44.802;10.332;2023-05-07T07:11:57;3.60;;;2.78;;
78122;SDS011;67376;44.802;10.332;2023-05-07T07:14:23;4.07;;;2.80;;
78122;SDS011;67376;44.802;10.332;2023-05-07T07:16:48;5.00;;;2.97;;
78122;SDS011;67376;44.802;10.332;2023-05-07T07:19:13;4.20;;;3.20;;
78122;SDS011;67376;44.802;10.332;2023-05-07T07:21:40;3.70;;;3.28;;
78122;SDS011;67376;44.802;10.332;2023-05-07T07:24:06;5.93;;;3.63;;
78122;SDS011;67376;44.802;10.332;2023-05-07T07:26:31;4.43;;;3.00;;
78122;SDS011;67376;44.802;10.332;2023-05-07T07:28:57;4.30;;;3.38;;
78122;SDS011;67376;44.802;10.332;2023-05-07T07:31:22;4.20;;;2.80;;
78122;SDS011;67376;44.802;10.332;2023-05-07T07:33:47;3.85;;;2.83;;
78122;SDS011;67376;44.802;10.332;2023-05-07T07:36:15;4.03;;;3.00;;
78122;SDS011;67376;44.802;10.332;2023-05-07T07:38:40;3.60;;;3.05;;
78122;SDS011;67376;44.802;10.332;2023-05-07T07:41:07;4.03;;;3.08;;
78122;SDS011;67376;44.802;10.332;2023-05-07T07:43:33;4.28;;;3.60;;
78122;SDS011;67376;44.802;10.332;2023-05-07T07:45:58;3.60;;;2.83;;
78122;SDS011;67376;44.802;10.332;2023-05-07T07:48:23;3.85;;;2.95;;
78122;SDS011;67376;44.802;10.332;2023-05-07T07:50:49;3.42;;;2.72;;
78122;SDS011;67376;44.802;10.332;2023-05-07T07:53:16;5.40;;;3.35;;
78122;SDS011;67376;44.802;10.332;2023-05-07T07:55:41;4.45;;;3.33;;
78122;SDS011;67376;44.802;10.332;2023-05-07T07:58:07;3.92;;;3.13;;
78122;SDS011;67376;44.802;10.332;2023-05-07T08:00:32;4.38;;;2.95;;
78122;SDS011;67376;44.802;10.332;2023-05-07T08:02:57;5.13;;;3.15;;
78122;SDS011;67376;44.802;10.332;2023-05-07T08:05:23;3.75;;;2.95;;
78122;SDS011;67376;44.802;10.332;2023-05-07T08:07:48;5.60;;;3.42;;
78122;SDS011;67376;44.802;10.332;2023-05-07T08:10:17;5.43;;;3.20;;
78122;SDS011;67376;44.802;10.332;2023-05-07T08:12:46;4.13;;;3.15;;
78122;SDS011;67376;44.802;10.332;2023-05-07T08:15:13;4.55;;;3.13;;
78122;SDS011;67376;44.802;10.332;2023-05-07T08:17:38;4.15;;;3.28;;
78122;SDS011;67376;44.802;10.332;2023-05-07T08:20:04;4.18;;;3.13;;
78122;SDS011;67376;44.802;10.332;2023-05-07T08:22:29;4.47;;;3.10;;
78122;SDS011;67376;44.802;10.332;2023-05-07T08:24:55;4.00;;;3.00;;
78122;SDS011;67376;44.802;10.332;2023-05-07T08:27:20;5.50;;;3.45;;
78122;SDS011;67376;44.802;10.332;2023-05-07T08:29:45;4.30;;;2.80;;
78122;SDS011;67376;44.802;10.332;2023-05-07T08:32:12;4.03;;;3.10;;
78122;SDS011;67376;44.802;10.332;2023-05-07T08:34:37;4.03;;;3.10;;
78122;SDS011;67376;44.802;10.332;2023-05-07T08:37:04;4.35;;;3.10;;
78122;SDS011;67376;44.802;10.332;2023-05-07T08:39:29;3.83;;;2.95;;
78122;SDS011;67376;44.802;10.332;2023-05-07T08:41:54;4.65;;;3.10;;
78122;SDS011;67376;44.802;10.332;2023-05-07T08:44:22;4.00;;;3.05;;
78122;SDS011;67376;44.802;10.332;2023-05-07T08:46:51;4.18;;;3.17;;
78122;SDS011;67376;44.802;10.332;2023-05-07T08:49:19;4.45;;;3.00;;
78122;SDS011;67376;44.802;10.332;2023-05-07T08:51:45;4.05;;;3.08;;
78122;SDS011;67376;44.802;10.332;2023-05-07T08:54:11;5.00;;;3.33;;
78122;SDS011;67376;44.802;10.332;2023-05-07T08:56:37;3.50;;;2.90;;
78122;SDS011;67376;44.802;10.332;2023-05-07T08:59:02;4.43;;;3.20;;
78122;SDS011;67376;44.802;10.332;2023-05-07T09:01:28;4.32;;;3.20;;
78122;SDS011;67376;44.802;10.332;2023-05-07T09:03:54;3.97;;;3.22;;
78122;SDS011;67376;44.802;10.332;2023-05-07T09:06:20;4.90;;;3.10;;
78122;SDS011;67376;44.802;10.332;2023-05-07T09:08:52;3.90;;;3.33;;
78122;SDS011;67376;44.802;10.332;2023-05-07T09:11:21;4.38;;;3.40;;
78122;SDS011;67376;44.802;10.332;2023-05-07T09:13:47;4.25;;;3.17;;
78122;SDS011;67376;44.802;10.332;2023-05-07T09:16:14;4.47;;;3.53;;
78122;SDS011;67376;44.802;10.332;2023-05-07T09:18:43;4.90;;;3.25;;
78122;SDS011;67376;44.802;10.332;2023-05-07T09:21:10;5.85;;;3.03;;
78122;SDS011;67376;44.802;10.332;2023-05-07T09:23:37;4.72;;;3.13;;
78122;SDS011;67376;44.802;10.332;2023-05-07T09:26:02;3.40;;;2.80;;
78122;SDS011;67376;44.802;10.332;2023-05-07T09:28:29;3.65;;;3.10;;
78122;SDS011;67376;44.802;10.332;2023-05-07T09:30:55;4.28;;;3.08;;
78122;SDS011;67376;44.802;10.332;2023-05-07T09:33:20;3.85;;;3.13;;
78122;SDS011;67376;44.802;10.332;2023-05-07T09:35:46;5.20;;;3.53;;
78122;SDS011;67376;44.802;10.332;2023-05-07T09:38:16;6.90;;;2.83;;
78122;SDS011;67376;44.802;10.332;2023-05-07T09:40:44;4.93;;;2.80;;
78122;SDS011;67376;44.802;10.332;2023-05-07T09:43:10;3.55;;;3.00;;
78122;SDS011;67376;44.802;10.332;2023-05-07T09:45:37;5.38;;;2.97;;
78122;SDS011;67376;44.802;10.332;2023-05-07T09:48:04;4.07;;;2.67;;
78122;SDS011;67376;44.802;10.332;2023-05-07T09:50:38;3.88;;;3.15;;
78122;SDS011;67376;44.802;10.332;2023-05-07T09:53:10;3.75;;;3.13;;
78122;SDS011;67376;44.802;10.332;2023-05-07T09:55:36;3.85;;;3.05;;
78122;SDS011;67376;44.802;10.332;2023-05-07T09:58:02;4.07;;;3.45;;
78122;SDS011;67376;44.802;10.332;2023-05-07T10:00:30;4.72;;;3.22;;
78122;SDS011;67376;44.802;10.332;2023-05-07T10:02:57;4.53;;;3.30;;
78122;SDS011;67376;44.802;10.332;2023-05-07T10:05:23;3.88;;;3.20;;
78122;SDS011;67376;44.802;10.332;2023-05-07T10:07:50;4.72;;;3.28;;
78122;SDS011;67376;44.802;10.332;2023-05-07T10:10:15;5.47;;;3.38;;
78122;SDS011;67376;44.802;10.332;2023-05-07T10:12:42;3.30;;;2.80;;
78122;SDS011;67376;44.802;10.332;2023-05-07T10:15:08;3.97;;;3.10;;
78122;SDS011;67376;44.802;10.332;2023-05-07T10:17:36;4.47;;;3.28;;
78122;SDS011;67376;44.802;10.332;2023-05-07T10:20:03;4.03;;;3.42;;
78122;SDS011;67376;44.802;10.332;2023-05-07T10:22:30;5.75;;;3.28;;
78122;SDS011;67376;44.802;10.332;2023-05-07T10:25:02;3.28;;;2.95;;
78122;SDS011;67376;44.802;10.332;2023-05-07T10:27:28;3.50;;;3.20;;
78122;SDS011;67376;44.802;10.332;2023-05-07T10:30:01;4.90;;;3.60;;
78122;SDS011;67376;44.802;10.332;2023-05-07T10:35:05;4.30;;;2.97;;
78122;SDS011;67376;44.802;10.332;2023-05-07T10:37:35;3.58;;;3.05;;
78122;SDS011;67376;44.802;10.332;2023-05-07T10:40:01;4.25;;;3.08;;
78122;SDS011;67376;44.802;10.332;2023-05-07T10:42:27;4.07;;;3.03;;
78122;SDS011;67376;44.802;10.332;2023-05-07T10:44:53;6.00;;;3.17;;
78122;SDS011;67376;44.802;10.332;2023-05-07T10:47:18;3.80;;;3.05;;
78122;SDS011;67376;44.802;10.332;2023-05-07T10:52:14;4.18;;;3.47;;
78122;SDS011;67376;44.802;10.332;2023-05-07T10:54:41;4.00;;;3.13;;
78122;SDS011;67376;44.802;10.332;2023-05-07T10:59:56;3.97;;;3.28;;
78122;SDS011;67376;44.802;10.332;2023-05-07T11:02:22;4.40;;;3.33;;
78122;SDS011;67376;44.802;10.332;2023-05-07T11:07:44;4.70;;;3.70;;
78122;SDS011;67376;44.802;10.332;2023-05-07T11:10:19;4.07;;;3.50;;
78122;SDS011;67376;44.802;10.332;2023-05-07T11:15:10;4.10;;;3.70;;
78122;SDS011;67376;44.802;10.332;2023-05-07T11:17:52;4.38;;;3.58;;
78122;SDS011;67376;44.802;10.332;2023-05-07T11:20:41;4.35;;;3.53;;
78122;SDS011;67376;44.802;10.332;2023-05-07T11:23:54;4.00;;;3.45;;
78122;SDS011;67376;44.802;10.332;2023-05-07T11:26:07;6.63;;;3.90;;
78122;SDS011;67376;44.802;10.332;2023-05-07T11:28:43;4.90;;;4.13;;
78122;SDS011;67376;44.802;10.332;2023-05-07T11:31:09;5.68;;;3.75;;
78122;SDS011;67376;44.802;10.332;2023-05-07T11:33:35;6.28;;;4.30;;
78122;SDS011;67376;44.802;10.332;2023-05-07T11:36:03;5.70;;;4.45;;
78122;SDS011;67376;44.802;10.332;2023-05-07T11:38:30;8.80;;;4.80;;
78122;SDS011;67376;44.802;10.332;2023-05-07T11:40:59;6.70;;;4.60;;
78122;SDS011;67376;44.802;10.332;2023-05-07T11:43:25;6.15;;;4.60;;
78122;SDS011;67376;44.802;10.332;2023-05-07T11:45:51;8.95;;;5.13;;
78122;SDS011;67376;44.802;10.332;2023-05-07T11:48:17;7.18;;;4.70;;
78122;SDS011;67376;44.802;10.332;2023-05-07T11:50:52;8.48;;;4.95;;
78122;SDS011;67376;44.802;10.332;2023-05-07T11:53:34;7.20;;;5.25;;
78122;SDS011;67376;44.802;10.332;2023-05-07T11:56:05;6.22;;;4.80;;
78122;SDS011;67376;44.802;10.332;2023-05-07T11:58:34;8.00;;;5.47;;
78122;SDS011;67376;44.802;10.332;2023-05-07T12:01:00;9.80;;;5.57;;
78122;SDS011;67376;44.802;10.332;2023-05-07T12:03:25;7.93;;;5.10;;
78122;SDS011;67376;44.802;10.332;2023-05-07T12:05:51;10.98;;;5.40;;
78122;SDS011;67376;44.802;10.332;2023-05-07T12:08:17;7.32;;;5.25;;
78122;SDS011;67376;44.802;10.332;2023-05-07T12:10:43;7.07;;;5.35;;
78122;SDS011;67376;44.802;10.332;2023-05-07T12:13:19;8.02;;;5.32;;
78122;SDS011;67376;44.802;10.332;2023-05-07T12:15:52;6.35;;;5.30;;
78122;SDS011;67376;44.802;10.332;2023-05-07T12:18:18;6.75;;;5.53;;
78122;SDS011;67376;44.802;10.332;2023-05-07T12:20:44;6.68;;;5.55;;
78122;SDS011;67376;44.802;10.332;2023-05-07T12:23:10;8.02;;;5.40;;
78122;SDS011;67376;44.802;10.332;2023-05-07T12:25:36;8.68;;;5.07;;
78122;SDS011;67376;44.802;10.332;2023-05-07T12:28:03;7.28;;;5.03;;
78122;SDS011;67376;44.802;10.332;2023-05-07T12:30:32;7.85;;;5.60;;
78122;SDS011;67376;44.802;10.332;2023-05-07T12:33:07;8.48;;;5.47;;
78122;SDS011;67376;44.802;10.332;2023-05-07T12:35:37;5.90;;;4.72;;
78122;SDS011;67376;44.802;10.332;2023-05-07T12:38:07;5.57;;;4.53;;
78122;SDS011;67376;44.802;10.332;2023-05-07T12:40:40;6.65;;;4.68;;
78122;SDS011;67376;44.802;10.332;2023-05-07T12:43:19;7.90;;;5.35;;
78122;SDS011;67376;44.802;10.332;2023-05-07T12:45:47;6.50;;;4.57;;
78122;SDS011;67376;44.802;10.332;2023-05-07T12:48:14;7.68;;;4.90;;
78122;SDS011;67376;44.802;10.332;2023-05-07T12:50:39;6.35;;;4.50;;
78122;SDS011;67376;44.802;10.332;2023-05-07T12:53:06;6.30;;;4.70;;
78122;SDS011;67376;44.802;10.332;2023-05-07T12:55:40;6.88;;;5.20;;
78122;SDS011;67376;44.802;10.332;2023-05-07T12:58:07;7.82;;;4.72;;
78122;SDS011;67376;44.802;10.332;2023-05-07T13:00:36;6.18;;;4.57;;
78122;SDS011;67376;44.802;10.332;2023-05-07T13:03:02;10.82;;;5.25;;
78122;SDS011;67376;44.802;10.332;2023-05-07T13:05:28;8.02;;;5.18;;
78122;SDS011;67376;44.802;10.332;2023-05-07T13:07:54;5.10;;;4.22;;
78122;SDS011;67376;44.802;10.332;2023-05-07T13:10:23;5.90;;;4.38;;
78122;SDS011;67376;44.802;10.332;2023-05-07T13:12:49;5.43;;;4.35;;
78122;SDS011;67376;44.802;10.332;2023-05-07T13:15:15;6.88;;;4.43;;
78122;SDS011;67376;44.802;10.332;2023-05-07T13:17:40;7.40;;;4.43;;
78122;SDS011;67376;44.802;10.332;2023-05-07T13:20:06;8.20;;;4.30;;
78122;SDS011;67376;44.802;10.332;2023-05-07T13:22:33;7.30;;;4.88;;
78122;SDS011;67376;44.802;10.332;2023-05-07T13:24:58;6.05;;;4.20;;
78122;SDS011;67376;44.802;10.332;2023-05-07T13:27:23;7.00;;;4.57;;
78122;SDS011;67376;44.802;10.332;2023-05-07T13:29:49;5.20;;;4.25;;
78122;SDS011;67376;44.802;10.332;2023-05-07T13:32:14;5.40;;;4.25;;
78122;SDS011;67376;44.802;10.332;2023-05-07T13:34:40;7.50;;;4.20;;
78122;SDS011;67376;44.802;10.332;2023-05-07T13:37:06;5.80;;;4.75;;
78122;SDS011;67376;44.802;10.332;2023-05-07T13:39:32;7.25;;;4.43;;
78122;SDS011;67376;44.802;10.332;2023-05-07T13:41:58;7.57;;;4.70;;
78122;SDS011;67376;44.802;10.332;2023-05-07T13:44:23;8.73;;;4.32;;
78122;SDS011;67376;44.802;10.332;2023-05-07T13:46:48;6.45;;;4.68;;
78122;SDS011;67376;44.802;10.332;2023-05-07T13:49:14;5.75;;;4.70;;
78122;SDS011;67376;44.802;10.332;2023-05-07T13:51:39;5.95;;;4.25;;
78122;SDS011;67376;44.802;10.332;2023-05-07T13:54:05;5.25;;;4.75;;
78122;SDS011;67376;44.802;10.332;2023-05-07T13:56:30;7.28;;;4.53;;
78122;SDS011;67376;44.802;10.332;2023-05-07T13:58:57;6.70;;;4.22;;
78122;SDS011;67376;44.802;10.332;2023-05-07T14:01:23;5.32;;;4.43;;
78122;SDS011;67376;44.802;10.332;2023-05-07T14:03:48;6.40;;;4.70;;
78122;SDS011;67376;44.802;10.332;2023-05-07T14:06:14;7.93;;;4.53;;
78122;SDS011;67376;44.802;10.332;2023-05-07T14:08:39;5.15;;;4.22;;
78122;SDS011;67376;44.802;10.332;2023-05-07T14:11:05;5.32;;;4.38;;
78122;SDS011;67376;44.802;10.332;2023-05-07T14:13:30;6.15;;;4.50;;
78122;SDS011;67376;44.802;10.332;2023-05-07T14:15:56;5.57;;;4.63;;
78122;SDS011;67376;44.802;10.332;2023-05-07T14:18:22;5.57;;;4.75;;
78122;SDS011;67376;44.802;10.332;2023-05-07T14:20:47;5.65;;;4.63;;
78122;SDS011;67376;44.802;10.332;2023-05-07T14:23:13;7.28;;;4.90;;
78122;SDS011;67376;44.802;10.332;2023-05-07T14:25:39;6.45;;;4.53;;
78122;SDS011;67376;44.802;10.332;2023-05-07T14:28:05;14.63;;;4.47;;
78122;SDS011;67376;44.802;10.332;2023-05-07T14:30:31;5.18;;;4.10;;
78122;SDS011;67376;44.802;10.332;2023-05-07T14:32:56;4.85;;;4.10;;
78122;SDS011;67376;44.802;10.332;2023-05-07T14:35:21;5.65;;;4.35;;
78122;SDS011;67376;44.802;10.332;2023-05-07T14:37:47;5.43;;;4.30;;
78122;SDS011;67376;44.802;10.332;2023-05-07T14:40:12;6.30;;;3.97;;
78122;SDS011;67376;44.802;10.332;2023-05-07T14:42:38;6.38;;;4.15;;